sensor_id;sensor_type;location;lat;lon;timestamp;temperature;humidity
774;DHT22;370;48.810;9.150;2023-09-12T00:01:10;18.00;47.70
774;DHT22;370;48.810;9.150;2023-09-12T00:03:37;18.00;47.70
774;DHT22;370;48.810;9.150;2023-09-12T00:06:04;18.00;47.80
774;DHT22;370;48.810;9.150;2023-09-12T00:08:31;17.90;48.80
774;DHT22;370;48.810;9.150;2023-09-12T00:10:59;17.90;49.80
774;DHT22;370;48.810;9.150;2023-09-12T00:13:28;17.90;48.50
774;DHT22;370;48.810;9.150;2023-09-12T00:15:55;18.00;47.80
774;DHT22;370;48.810;9.150;2023-09-12T00:18:21;18.00;47.70
774;DHT22;370;48.810;9.150;2023-09-12T00:20:50;18.00;47.80
774;DHT22;370;48.810;9.150;2023-09-12T00:23:18;18.00;47.70
774;DHT22;370;48.810;9.150;2023-09-12T00:25:45;18.00;46.80
774;DHT22;370;48.810;9.150;2023-09-12T00:28:11;18.00;47.70
774;DHT22;370;48.810;9.150;2023-09-12T00:30:40;17.90;47.60
774;DHT22;370;48.810;9.150;2023-09-12T00:33:06;17.90;46.50
774;DHT22;370;48.810;9.150;2023-09-12T00:35:33;17.90;47.60
774;DHT22;370;48.810;9.150;2023-09-12T00:38:00;17.90;47.70
774;DHT22;370;48.810;9.150;2023-09-12T00:40:26;17.90;47.60
774;DHT22;370;48.810;9.150;2023-09-12T00:42:54;17.80;47.50
774;DHT22;370;48.810;9.150;2023-09-12T00:45:21;17.80;49.10
774;DHT22;370;48.810;9.150;2023-09-12T00:47:49;17.80;50.20
774;DHT22;370;48.810;9.150;2023-09-12T00:50:18;17.80;50.30
774;DHT22;370;48.810;9.150;2023-09-12T00:52:45;17.70;50.70
774;DHT22;370;48.810;9.150;2023-09-12T00:55:13;17.70;51.10
774;DHT22;370;48.810;9.150;2023-09-12T00:57:40;17.60;51.80
774;DHT22;370;48.810;9.150;2023-09-12T01:00:10;17.60;51.70
774;DHT22;370;48.810;9.150;2023-09-12T01:02:38;17.60;52.00
774;DHT22;370;48.810;9.150;2023-09-12T01:05:07;17.60;51.90
774;DHT22;370;48.810;9.150;2023-09-12T01:07:34;17.50;52.70
774;DHT22;370;48.810;9.150;2023-09-12T01:10:02;17.50;53.20
774;DHT22;370;48.810;9.150;2023-09-12T01:12:29;17.40;53.50
774;DHT22;370;48.810;9.150;2023-09-12T01:14:56;17.50;52.80
774;DHT22;370;48.810;9.150;2023-09-12T01:17:23;17.50;54.30
774;DHT22;370;48.810;9.150;2023-09-12T01:19:51;17.50;53.80
774;DHT22;370;48.810;9.150;2023-09-12T01:22:43;17.50;54.10
774;DHT22;370;48.810;9.150;2023-09-12T01:25:42;17.40;54.70
774;DHT22;370;48.810;9.150;2023-09-12T01:28:16;17.30;56.40
774;DHT22;370;48.810;9.150;2023-09-12T01:30:45;17.30;57.10
774;DHT22;370;48.810;9.150;2023-09-12T01:33:15;17.30;58.00
774;DHT22;370;48.810;9.150;2023-09-12T01:35:42;17.40;57.20
774;DHT22;370;48.810;9.150;2023-09-12T01:38:09;17.40;55.50
774;DHT22;370;48.810;9.150;2023-09-12T01:40:41;17.50;54.80
774;DHT22;370;48.810;9.150;2023-09-12T01:43:09;17.40;54.30
774;DHT22;370;48.810;9.150;2023-09-12T01:45:37;17.40;54.50
774;DHT22;370;48.810;9.150;2023-09-12T01:48:05;17.50;54.10
774;DHT22;370;48.810;9.150;2023-09-12T01:50:33;17.50;52.80
774;DHT22;370;48.810;9.150;2023-09-12T01:53:00;17.60;53.10
774;DHT22;370;48.810;9.150;2023-09-12T01:55:27;17.50;52.00
774;DHT22;370;48.810;9.150;2023-09-12T01:57:54;17.40;53.50
774;DHT22;370;48.810;9.150;2023-09-12T02:00:22;17.40;53.10
774;DHT22;370;48.810;9.150;2023-09-12T02:02:50;17.20;55.70
774;DHT22;370;48.810;9.150;2023-09-12T02:05:18;17.20;57.00
774;DHT22;370;48.810;9.150;2023-09-12T02:07:46;17.20;57.60
774;DHT22;370;48.810;9.150;2023-09-12T02:10:14;17.20;58.00
774;DHT22;370;48.810;9.150;2023-09-12T02:12:41;17.20;57.00
774;DHT22;370;48.810;9.150;2023-09-12T02:15:08;17.20;58.60
774;DHT22;370;48.810;9.150;2023-09-12T02:17:35;17.10;59.20
774;DHT22;370;48.810;9.150;2023-09-12T02:20:07;17.10;59.20
774;DHT22;370;48.810;9.150;2023-09-12T02:22:34;17.10;60.10
774;DHT22;370;48.810;9.150;2023-09-12T02:25:01;17.10;60.00
774;DHT22;370;48.810;9.150;2023-09-12T02:27:28;17.10;60.80
774;DHT22;370;48.810;9.150;2023-09-12T02:29:55;17.10;61.00
774;DHT22;370;48.810;9.150;2023-09-12T02:32:21;17.10;60.00
774;DHT22;370;48.810;9.150;2023-09-12T02:34:48;17.20;58.20
774;DHT22;370;48.810;9.150;2023-09-12T02:37:16;17.20;57.40
774;DHT22;370;48.810;9.150;2023-09-12T02:39:43;17.20;57.00
774;DHT22;370;48.810;9.150;2023-09-12T02:42:10;17.20;57.00
774;DHT22;370;48.810;9.150;2023-09-12T02:44:36;17.10;57.70
774;DHT22;370;48.810;9.150;2023-09-12T02:47:04;17.10;57.90
774;DHT22;370;48.810;9.150;2023-09-12T02:49:30;17.00;60.20
774;DHT22;370;48.810;9.150;2023-09-12T02:51:57;17.10;59.90
774;DHT22;370;48.810;9.150;2023-09-12T02:54:25;17.10;59.00
774;DHT22;370;48.810;9.150;2023-09-12T02:56:52;17.10;58.20
774;DHT22;370;48.810;9.150;2023-09-12T02:59:19;17.10;58.90
774;DHT22;370;48.810;9.150;2023-09-12T03:01:46;17.10;57.50
774;DHT22;370;48.810;9.150;2023-09-12T03:04:12;17.10;56.90
774;DHT22;370;48.810;9.150;2023-09-12T03:06:39;17.00;58.90
774;DHT22;370;48.810;9.150;2023-09-12T03:09:06;17.00;59.20
774;DHT22;370;48.810;9.150;2023-09-12T03:11:34;17.00;60.20
774;DHT22;370;48.810;9.150;2023-09-12T03:14:01;17.00;60.80
774;DHT22;370;48.810;9.150;2023-09-12T03:16:28;17.00;60.30
774;DHT22;370;48.810;9.150;2023-09-12T03:18:54;17.00;60.40
774;DHT22;370;48.810;9.150;2023-09-12T03:21:21;16.90;60.00
774;DHT22;370;48.810;9.150;2023-09-12T03:23:48;17.00;59.60
774;DHT22;370;48.810;9.150;2023-09-12T03:26:14;17.00;60.00
774;DHT22;370;48.810;9.150;2023-09-12T03:28:43;16.90;60.00
774;DHT22;370;48.810;9.150;2023-09-12T03:31:10;16.90;61.10
774;DHT22;370;48.810;9.150;2023-09-12T03:33:38;16.90;62.10
774;DHT22;370;48.810;9.150;2023-09-12T03:36:05;16.90;62.10
774;DHT22;370;48.810;9.150;2023-09-12T03:38:33;16.80;61.10
774;DHT22;370;48.810;9.150;2023-09-12T03:41:00;16.80;62.00
774;DHT22;370;48.810;9.150;2023-09-12T03:43:27;16.90;59.70
774;DHT22;370;48.810;9.150;2023-09-12T03:45:55;16.90;58.80
774;DHT22;370;48.810;9.150;2023-09-12T03:48:23;16.80;60.80
774;DHT22;370;48.810;9.150;2023-09-12T03:50:50;16.70;62.80
774;DHT22;370;48.810;9.150;2023-09-12T03:53:17;16.60;64.10
774;DHT22;370;48.810;9.150;2023-09-12T03:55:43;16.60;64.80
774;DHT22;370;48.810;9.150;2023-09-12T03:58:10;16.60;65.20
774;DHT22;370;48.810;9.150;2023-09-12T04:00:37;16.60;65.20
774;DHT22;370;48.810;9.150;2023-09-12T04:03:05;16.90;64.70
774;DHT22;370;48.810;9.150;2023-09-12T04:05:32;17.00;59.30
774;DHT22;370;48.810;9.150;2023-09-12T04:07:59;16.90;58.90
774;DHT22;370;48.810;9.150;2023-09-12T04:10:26;17.00;58.90
774;DHT22;370;48.810;9.150;2023-09-12T04:12:52;17.00;58.30
774;DHT22;370;48.810;9.150;2023-09-12T04:15:19;17.10;56.90
774;DHT22;370;48.810;9.150;2023-09-12T04:17:46;16.90;56.70
774;DHT22;370;48.810;9.150;2023-09-12T04:20:14;16.90;59.00
774;DHT22;370;48.810;9.150;2023-09-12T04:22:41;17.00;56.80
774;DHT22;370;48.810;9.150;2023-09-12T04:25:08;16.90;57.20
774;DHT22;370;48.810;9.150;2023-09-12T04:27:35;17.00;58.10
774;DHT22;370;48.810;9.150;2023-09-12T04:30:02;17.00;58.50
774;DHT22;370;48.810;9.150;2023-09-12T04:32:29;17.10;56.90
774;DHT22;370;48.810;9.150;2023-09-12T04:34:56;17.10;56.30
774;DHT22;370;48.810;9.150;2023-09-12T04:37:24;17.00;56.80
774;DHT22;370;48.810;9.150;2023-09-12T04:39:51;17.00;58.50
774;DHT22;370;48.810;9.150;2023-09-12T04:42:18;16.90;59.40
774;DHT22;370;48.810;9.150;2023-09-12T04:44:44;16.80;60.60
774;DHT22;370;48.810;9.150;2023-09-12T04:47:11;16.90;61.90
774;DHT22;370;48.810;9.150;2023-09-12T04:49:38;17.00;60.10
774;DHT22;370;48.810;9.150;2023-09-12T04:52:05;16.90;59.70
774;DHT22;370;48.810;9.150;2023-09-12T04:54:34;17.00;59.30
774;DHT22;370;48.810;9.150;2023-09-12T04:57:02;17.00;60.10
774;DHT22;370;48.810;9.150;2023-09-12T04:59:28;17.00;59.30
774;DHT22;370;48.810;9.150;2023-09-12T05:01:55;17.00;58.40
774;DHT22;370;48.810;9.150;2023-09-12T05:04:22;17.00;58.50
774;DHT22;370;48.810;9.150;2023-09-12T05:06:49;17.00;58.80
774;DHT22;370;48.810;9.150;2023-09-12T05:09:15;17.10;58.70
774;DHT22;370;48.810;9.150;2023-09-12T05:11:43;17.10;58.30
774;DHT22;370;48.810;9.150;2023-09-12T05:14:10;17.20;57.60
774;DHT22;370;48.810;9.150;2023-09-12T05:16:37;17.30;57.10
774;DHT22;370;48.810;9.150;2023-09-12T05:19:04;17.30;57.10
774;DHT22;370;48.810;9.150;2023-09-12T05:21:31;17.40;55.70
774;DHT22;370;48.810;9.150;2023-09-12T05:23:57;17.60;55.40
774;DHT22;370;48.810;9.150;2023-09-12T05:26:24;17.70;52.80
774;DHT22;370;48.810;9.150;2023-09-12T05:28:53;17.80;51.20
774;DHT22;370;48.810;9.150;2023-09-12T05:31:20;18.00;47.80
774;DHT22;370;48.810;9.150;2023-09-12T05:33:47;18.10;45.10
774;DHT22;370;48.810;9.150;2023-09-12T05:36:14;18.20;42.50
774;DHT22;370;48.810;9.150;2023-09-12T05:38:41;18.40;41.00
774;DHT22;370;48.810;9.150;2023-09-12T05:41:07;18.70;36.70
774;DHT22;370;48.810;9.150;2023-09-12T05:43:34;19.00;29.00
774;DHT22;370;48.810;9.150;2023-09-12T05:46:03;19.10;28.50
774;DHT22;370;48.810;9.150;2023-09-12T05:48:30;19.20;28.50
774;DHT22;370;48.810;9.150;2023-09-12T05:50:57;19.40;27.40
774;DHT22;370;48.810;9.150;2023-09-12T05:53:23;19.70;23.60
774;DHT22;370;48.810;9.150;2023-09-12T05:55:50;20.10;22.80
774;DHT22;370;48.810;9.150;2023-09-12T05:58:17;20.50;20.90
774;DHT22;370;48.810;9.150;2023-09-12T06:00:44;21.00;15.00
774;DHT22;370;48.810;9.150;2023-09-12T06:03:15;21.40;12.20
774;DHT22;370;48.810;9.150;2023-09-12T06:05:42;21.50;9.00
774;DHT22;370;48.810;9.150;2023-09-12T06:08:09;21.80;7.90
774;DHT22;370;48.810;9.150;2023-09-12T06:10:36;22.10;4.20
774;DHT22;370;48.810;9.150;2023-09-12T06:13:03;22.30;3.80
774;DHT22;370;48.810;9.150;2023-09-12T06:15:30;22.50;1.70
774;DHT22;370;48.810;9.150;2023-09-12T06:17:56;22.60;1.30
774;DHT22;370;48.810;9.150;2023-09-12T06:20:25;22.60;1.20
774;DHT22;370;48.810;9.150;2023-09-12T06:22:52;22.70;1.00
774;DHT22;370;48.810;9.150;2023-09-12T06:25:18;22.90;1.00
774;DHT22;370;48.810;9.150;2023-09-12T06:27:45;23.20;1.00
774;DHT22;370;48.810;9.150;2023-09-12T06:30:13;23.60;1.00
774;DHT22;370;48.810;9.150;2023-09-12T06:32:40;23.90;1.00
774;DHT22;370;48.810;9.150;2023-09-12T06:35:07;23.90;1.00
774;DHT22;370;48.810;9.150;2023-09-12T06:37:37;24.00;1.00
774;DHT22;370;48.810;9.150;2023-09-12T06:40:05;24.40;1.00
774;DHT22;370;48.810;9.150;2023-09-12T06:42:32;24.40;1.00
774;DHT22;370;48.810;9.150;2023-09-12T06:44:59;24.30;1.00
774;DHT22;370;48.810;9.150;2023-09-12T06:47:26;24.50;1.00
774;DHT22;370;48.810;9.150;2023-09-12T06:49:52;24.60;1.00
774;DHT22;370;48.810;9.150;2023-09-12T06:52:19;24.60;1.00
774;DHT22;370;48.810;9.150;2023-09-12T06:54:47;24.70;1.00
774;DHT22;370;48.810;9.150;2023-09-12T06:57:14;24.30;1.00
774;DHT22;370;48.810;9.150;2023-09-12T06:59:41;24.10;1.00
774;DHT22;370;48.810;9.150;2023-09-12T07:02:08;24.10;1.00
774;DHT22;370;48.810;9.150;2023-09-12T07:04:35;24.00;1.00
774;DHT22;370;48.810;9.150;2023-09-12T07:07:02;24.30;1.00
774;DHT22;370;48.810;9.150;2023-09-12T07:09:30;24.50;1.00
774;DHT22;370;48.810;9.150;2023-09-12T07:11:58;24.30;1.00
774;DHT22;370;48.810;9.150;2023-09-12T07:14:24;24.80;1.00
774;DHT22;370;48.810;9.150;2023-09-12T07:16:51;25.80;1.00
774;DHT22;370;48.810;9.150;2023-09-12T07:19:18;26.90;1.00
774;DHT22;370;48.810;9.150;2023-09-12T07:21:45;27.70;1.00
774;DHT22;370;48.810;9.150;2023-09-12T07:24:12;28.60;1.00
774;DHT22;370;48.810;9.150;2023-09-12T07:26:39;28.90;1.00
774;DHT22;370;48.810;9.150;2023-09-12T07:29:07;29.10;1.00
774;DHT22;370;48.810;9.150;2023-09-12T07:31:34;29.10;1.00
774;DHT22;370;48.810;9.150;2023-09-12T07:34:00;29.00;1.00
774;DHT22;370;48.810;9.150;2023-09-12T07:36:28;28.80;1.00
774;DHT22;370;48.810;9.150;2023-09-12T07:38:54;28.50;1.00
774;DHT22;370;48.810;9.150;2023-09-12T07:41:21;28.80;1.00
774;DHT22;370;48.810;9.150;2023-09-12T07:43:48;29.00;1.00
774;DHT22;370;48.810;9.150;2023-09-12T07:46:16;29.60;1.00
774;DHT22;370;48.810;9.150;2023-09-12T07:48:43;30.10;1.00
774;DHT22;370;48.810;9.150;2023-09-12T07:51:14;31.70;1.00
774;DHT22;370;48.810;9.150;2023-09-12T07:53:41;33.60;1.00
774;DHT22;370;48.810;9.150;2023-09-12T07:56:09;34.10;1.00
774;DHT22;370;48.810;9.150;2023-09-12T07:58:36;34.80;1.00
774;DHT22;370;48.810;9.150;2023-09-12T08:01:06;34.90;1.00
774;DHT22;370;48.810;9.150;2023-09-12T08:03:36;34.80;1.00
774;DHT22;370;48.810;9.150;2023-09-12T08:06:04;34.70;1.00
774;DHT22;370;48.810;9.150;2023-09-12T08:08:31;34.20;1.00
774;DHT22;370;48.810;9.150;2023-09-12T08:10:58;34.00;1.00
774;DHT22;370;48.810;9.150;2023-09-12T08:13:26;34.20;1.00
774;DHT22;370;48.810;9.150;2023-09-12T08:15:54;34.90;1.00
774;DHT22;370;48.810;9.150;2023-09-12T08:18:20;35.70;1.00
774;DHT22;370;48.810;9.150;2023-09-12T08:20:49;35.60;1.00
774;DHT22;370;48.810;9.150;2023-09-12T08:23:15;35.30;1.00
774;DHT22;370;48.810;9.150;2023-09-12T08:25:42;34.80;1.00
774;DHT22;370;48.810;9.150;2023-09-12T08:28:09;34.30;1.00
774;DHT22;370;48.810;9.150;2023-09-12T08:30:36;34.10;1.00
774;DHT22;370;48.810;9.150;2023-09-12T08:33:03;33.90;1.00
774;DHT22;370;48.810;9.150;2023-09-12T08:35:32;34.10;1.00
774;DHT22;370;48.810;9.150;2023-09-12T08:38:00;34.00;1.00
774;DHT22;370;48.810;9.150;2023-09-12T08:40:27;33.60;1.00
774;DHT22;370;48.810;9.150;2023-09-12T08:42:55;33.40;1.00
774;DHT22;370;48.810;9.150;2023-09-12T08:45:23;33.20;1.00
774;DHT22;370;48.810;9.150;2023-09-12T08:47:53;34.70;1.00
774;DHT22;370;48.810;9.150;2023-09-12T08:50:20;37.10;1.00
774;DHT22;370;48.810;9.150;2023-09-12T08:52:49;39.50;1.00
774;DHT22;370;48.810;9.150;2023-09-12T08:55:17;41.80;1.00
774;DHT22;370;48.810;9.150;2023-09-12T08:57:47;42.90;1.00
774;DHT22;370;48.810;9.150;2023-09-12T09:00:16;44.30;1.00
774;DHT22;370;48.810;9.150;2023-09-12T09:02:43;44.70;1.00
774;DHT22;370;48.810;9.150;2023-09-12T09:05:12;45.80;1.00
774;DHT22;370;48.810;9.150;2023-09-12T09:07:41;46.50;1.00
774;DHT22;370;48.810;9.150;2023-09-12T09:10:13;47.60;1.00
774;DHT22;370;48.810;9.150;2023-09-12T09:12:43;48.60;1.00
774;DHT22;370;48.810;9.150;2023-09-12T09:15:23;49.80;1.00
774;DHT22;370;48.810;9.150;2023-09-12T09:17:52;50.70;1.00
774;DHT22;370;48.810;9.150;2023-09-12T09:20:24;51.50;1.00
774;DHT22;370;48.810;9.150;2023-09-12T09:22:59;51.60;1.00
774;DHT22;370;48.810;9.150;2023-09-12T09:25:26;51.40;1.00
774;DHT22;370;48.810;9.150;2023-09-12T09:27:55;52.50;1.00
774;DHT22;370;48.810;9.150;2023-09-12T09:30:41;53.40;1.00
774;DHT22;370;48.810;9.150;2023-09-12T09:33:09;53.80;1.00
774;DHT22;370;48.810;9.150;2023-09-12T09:35:36;54.40;1.00
774;DHT22;370;48.810;9.150;2023-09-12T09:38:05;55.10;1.00
774;DHT22;370;48.810;9.150;2023-09-12T09:40:33;55.70;1.00
774;DHT22;370;48.810;9.150;2023-09-12T09:43:02;56.20;1.00
774;DHT22;370;48.810;9.150;2023-09-12T09:45:30;56.10;1.00
774;DHT22;370;48.810;9.150;2023-09-12T09:47:57;56.50;1.00
774;DHT22;370;48.810;9.150;2023-09-12T09:50:25;57.00;1.00
774;DHT22;370;48.810;9.150;2023-09-12T09:52:55;56.60;1.00
774;DHT22;370;48.810;9.150;2023-09-12T09:55:23;56.50;1.00
774;DHT22;370;48.810;9.150;2023-09-12T09:57:50;56.90;1.00
774;DHT22;370;48.810;9.150;2023-09-12T10:00:21;57.20;1.00
774;DHT22;370;48.810;9.150;2023-09-12T10:02:50;57.10;1.00
774;DHT22;370;48.810;9.150;2023-09-12T10:05:17;57.70;1.00
774;DHT22;370;48.810;9.150;2023-09-12T10:07:47;57.70;1.00
774;DHT22;370;48.810;9.150;2023-09-12T10:10:16;57.40;1.00
774;DHT22;370;48.810;9.150;2023-09-12T10:12:48;57.90;1.00
774;DHT22;370;48.810;9.150;2023-09-12T10:15:17;58.40;1.00
774;DHT22;370;48.810;9.150;2023-09-12T10:17:47;58.70;1.00
774;DHT22;370;48.810;9.150;2023-09-12T10:20:20;58.90;1.00
774;DHT22;370;48.810;9.150;2023-09-12T10:22:55;56.90;1.00
774;DHT22;370;48.810;9.150;2023-09-12T10:25:23;54.20;1.00
774;DHT22;370;48.810;9.150;2023-09-12T10:27:52;54.60;1.00
774;DHT22;370;48.810;9.150;2023-09-12T10:30:21;55.50;1.00
774;DHT22;370;48.810;9.150;2023-09-12T10:32:49;56.60;1.00
774;DHT22;370;48.810;9.150;2023-09-12T10:35:17;57.30;1.00
774;DHT22;370;48.810;9.150;2023-09-12T10:37:46;57.10;1.00
774;DHT22;370;48.810;9.150;2023-09-12T10:40:17;55.90;1.00
774;DHT22;370;48.810;9.150;2023-09-12T10:42:44;56.20;1.00
774;DHT22;370;48.810;9.150;2023-09-12T10:45:12;57.20;1.00
774;DHT22;370;48.810;9.150;2023-09-12T10:47:39;57.10;1.00
774;DHT22;370;48.810;9.150;2023-09-12T10:50:08;57.70;1.00
774;DHT22;370;48.810;9.150;2023-09-12T10:52:35;57.40;1.00
774;DHT22;370;48.810;9.150;2023-09-12T10:55:06;58.40;1.00
774;DHT22;370;48.810;9.150;2023-09-12T10:57:33;57.70;1.00
774;DHT22;370;48.810;9.150;2023-09-12T11:00:21;58.80;1.00
774;DHT22;370;48.810;9.150;2023-09-12T11:02:48;59.10;1.00
774;DHT22;370;48.810;9.150;2023-09-12T11:05:39;57.80;1.00
774;DHT22;370;48.810;9.150;2023-09-12T11:08:21;55.60;1.00
774;DHT22;370;48.810;9.150;2023-09-12T11:11:16;54.60;1.00
774;DHT22;370;48.810;9.150;2023-09-12T11:13:45;54.70;1.00
774;DHT22;370;48.810;9.150;2023-09-12T11:16:16;55.70;1.00
774;DHT22;370;48.810;9.150;2023-09-12T11:19:12;56.70;1.00
774;DHT22;370;48.810;9.150;2023-09-12T11:21:43;57.30;1.00
774;DHT22;370;48.810;9.150;2023-09-12T11:24:11;58.20;1.00
774;DHT22;370;48.810;9.150;2023-09-12T11:26:53;58.80;1.00
774;DHT22;370;48.810;9.150;2023-09-12T11:29:21;58.90;1.00
774;DHT22;370;48.810;9.150;2023-09-12T11:31:55;59.10;1.00
774;DHT22;370;48.810;9.150;2023-09-12T11:34:25;59.40;1.00
774;DHT22;370;48.810;9.150;2023-09-12T11:36:56;58.90;1.00
774;DHT22;370;48.810;9.150;2023-09-12T11:39:26;57.80;1.00
774;DHT22;370;48.810;9.150;2023-09-12T11:41:55;57.90;1.00
774;DHT22;370;48.810;9.150;2023-09-12T11:44:22;58.50;1.00
774;DHT22;370;48.810;9.150;2023-09-12T11:46:50;58.60;1.00
774;DHT22;370;48.810;9.150;2023-09-12T11:49:18;58.70;1.00
774;DHT22;370;48.810;9.150;2023-09-12T11:51:47;58.40;1.00
774;DHT22;370;48.810;9.150;2023-09-12T11:54:17;57.30;1.00
774;DHT22;370;48.810;9.150;2023-09-12T11:56:44;58.20;1.00
774;DHT22;370;48.810;9.150;2023-09-12T11:59:13;58.80;1.00
774;DHT22;370;48.810;9.150;2023-09-12T12:01:40;57.70;1.00
774;DHT22;370;48.810;9.150;2023-09-12T12:04:09;57.80;1.00
774;DHT22;370;48.810;9.150;2023-09-12T12:06:36;57.90;1.00
774;DHT22;370;48.810;9.150;2023-09-12T12:09:03;58.20;1.00
774;DHT22;370;48.810;9.150;2023-09-12T12:11:32;57.80;1.00
774;DHT22;370;48.810;9.150;2023-09-12T12:14:09;58.20;1.00
774;DHT22;370;48.810;9.150;2023-09-12T12:16:36;58.40;1.00
774;DHT22;370;48.810;9.150;2023-09-12T12:19:03;58.30;1.00
774;DHT22;370;48.810;9.150;2023-09-12T12:21:30;57.80;1.00
774;DHT22;370;48.810;9.150;2023-09-12T12:23:59;58.90;1.00
774;DHT22;370;48.810;9.150;2023-09-12T12:26:26;60.30;1.00
774;DHT22;370;48.810;9.150;2023-09-12T12:28:54;60.30;1.00
774;DHT22;370;48.810;9.150;2023-09-12T12:34:28;60.10;1.00
774;DHT22;370;48.810;9.150;2023-09-12T12:36:55;59.80;1.00
774;DHT22;370;48.810;9.150;2023-09-12T12:39:22;58.60;1.00
774;DHT22;370;48.810;9.150;2023-09-12T12:41:52;57.70;1.00
774;DHT22;370;48.810;9.150;2023-09-12T12:44:51;57.80;1.00
774;DHT22;370;48.810;9.150;2023-09-12T12:47:21;57.50;1.00
774;DHT22;370;48.810;9.150;2023-09-12T12:49:50;57.30;1.00
774;DHT22;370;48.810;9.150;2023-09-12T12:52:22;55.60;1.00
774;DHT22;370;48.810;9.150;2023-09-12T12:54:49;54.80;1.00
774;DHT22;370;48.810;9.150;2023-09-12T12:57:18;53.20;1.00
774;DHT22;370;48.810;9.150;2023-09-12T12:59:46;53.60;1.00
774;DHT22;370;48.810;9.150;2023-09-12T13:02:14;53.60;1.00
774;DHT22;370;48.810;9.150;2023-09-12T13:04:41;53.80;1.00
774;DHT22;370;48.810;9.150;2023-09-12T13:07:08;54.30;1.00
774;DHT22;370;48.810;9.150;2023-09-12T13:09:36;55.20;1.00
774;DHT22;370;48.810;9.150;2023-09-12T13:12:05;55.60;1.00
774;DHT22;370;48.810;9.150;2023-09-12T13:14:31;55.70;1.00
774;DHT22;370;48.810;9.150;2023-09-12T13:16:58;56.20;1.00
774;DHT22;370;48.810;9.150;2023-09-12T13:22:49;56.40;1.00
774;DHT22;370;48.810;9.150;2023-09-12T13:25:16;55.60;1.00
774;DHT22;370;48.810;9.150;2023-09-12T13:27:42;56.00;1.00
774;DHT22;370;48.810;9.150;2023-09-12T13:30:10;56.20;1.00
774;DHT22;370;48.810;9.150;2023-09-12T13:32:37;55.90;1.00
774;DHT22;370;48.810;9.150;2023-09-12T13:35:04;55.60;1.00
774;DHT22;370;48.810;9.150;2023-09-12T13:37:32;55.90;1.00
774;DHT22;370;48.810;9.150;2023-09-12T13:40:00;56.30;1.00
774;DHT22;370;48.810;9.150;2023-09-12T13:42:26;54.70;1.00
774;DHT22;370;48.810;9.150;2023-09-12T13:44:56;53.00;1.00
774;DHT22;370;48.810;9.150;2023-09-12T13:47:23;52.60;1.00
774;DHT22;370;48.810;9.150;2023-09-12T13:49:51;53.10;1.00
774;DHT22;370;48.810;9.150;2023-09-12T13:52:19;52.90;1.00
774;DHT22;370;48.810;9.150;2023-09-12T13:54:46;52.20;1.00
774;DHT22;370;48.810;9.150;2023-09-12T13:57:15;50.20;1.00
774;DHT22;370;48.810;9.150;2023-09-12T13:59:42;49.90;1.00
774;DHT22;370;48.810;9.150;2023-09-12T14:02:09;49.90;1.00
774;DHT22;370;48.810;9.150;2023-09-12T14:04:36;49.50;1.00
774;DHT22;370;48.810;9.150;2023-09-12T14:07:03;49.10;1.00
774;DHT22;370;48.810;9.150;2023-09-12T14:09:32;48.60;1.00
774;DHT22;370;48.810;9.150;2023-09-12T14:11:59;48.80;1.00
774;DHT22;370;48.810;9.150;2023-09-12T14:14:27;48.40;1.00
774;DHT22;370;48.810;9.150;2023-09-12T14:16:54;48.50;1.00
774;DHT22;370;48.810;9.150;2023-09-12T14:19:21;48.80;1.00
774;DHT22;370;48.810;9.150;2023-09-12T14:21:47;48.30;1.00
774;DHT22;370;48.810;9.150;2023-09-12T14:24:14;48.90;1.00
774;DHT22;370;48.810;9.150;2023-09-12T14:26:41;47.60;1.00
774;DHT22;370;48.810;9.150;2023-09-12T14:29:07;46.10;1.00
774;DHT22;370;48.810;9.150;2023-09-12T14:31:37;44.50;1.00
774;DHT22;370;48.810;9.150;2023-09-12T14:34:04;43.70;1.00
774;DHT22;370;48.810;9.150;2023-09-12T14:36:31;42.90;1.00
774;DHT22;370;48.810;9.150;2023-09-12T14:38:58;41.70;1.00
774;DHT22;370;48.810;9.150;2023-09-12T14:41:25;40.50;1.00
774;DHT22;370;48.810;9.150;2023-09-12T14:43:51;39.70;1.00
774;DHT22;370;48.810;9.150;2023-09-12T14:46:18;38.80;1.00
774;DHT22;370;48.810;9.150;2023-09-12T14:48:46;38.30;1.00
774;DHT22;370;48.810;9.150;2023-09-12T14:51:13;37.50;1.00
774;DHT22;370;48.810;9.150;2023-09-12T14:53:40;37.00;1.00
774;DHT22;370;48.810;9.150;2023-09-12T14:56:09;36.70;1.00
774;DHT22;370;48.810;9.150;2023-09-12T14:58:36;36.40;1.00
774;DHT22;370;48.810;9.150;2023-09-12T15:01:03;36.10;1.00
774;DHT22;370;48.810;9.150;2023-09-12T15:03:30;35.80;1.00
774;DHT22;370;48.810;9.150;2023-09-12T15:06:04;35.60;1.00
774;DHT22;370;48.810;9.150;2023-09-12T15:08:31;36.00;1.00
774;DHT22;370;48.810;9.150;2023-09-12T15:10:58;36.20;1.00
774;DHT22;370;48.810;9.150;2023-09-12T15:13:25;36.50;1.00
774;DHT22;370;48.810;9.150;2023-09-12T15:15:52;36.60;1.00
774;DHT22;370;48.810;9.150;2023-09-12T15:18:19;36.60;1.00
774;DHT22;370;48.810;9.150;2023-09-12T15:20:46;36.30;1.00
774;DHT22;370;48.810;9.150;2023-09-12T15:23:14;36.10;1.00
774;DHT22;370;48.810;9.150;2023-09-12T15:25:41;36.00;1.00
774;DHT22;370;48.810;9.150;2023-09-12T15:28:08;36.00;1.00
774;DHT22;370;48.810;9.150;2023-09-12T15:30:35;35.90;1.00
774;DHT22;370;48.810;9.150;2023-09-12T15:33:03;35.90;1.00
774;DHT22;370;48.810;9.150;2023-09-12T15:35:29;35.70;1.00
774;DHT22;370;48.810;9.150;2023-09-12T15:37:56;35.50;1.00
774;DHT22;370;48.810;9.150;2023-09-12T15:40:25;35.40;1.00
774;DHT22;370;48.810;9.150;2023-09-12T15:42:51;35.50;1.00
774;DHT22;370;48.810;9.150;2023-09-12T15:45:18;35.30;1.00
774;DHT22;370;48.810;9.150;2023-09-12T15:47:46;35.00;1.00
774;DHT22;370;48.810;9.150;2023-09-12T15:50:13;34.50;1.00
774;DHT22;370;48.810;9.150;2023-09-12T15:52:40;34.00;1.00
774;DHT22;370;48.810;9.150;2023-09-12T15:55:09;33.60;1.00
774;DHT22;370;48.810;9.150;2023-09-12T15:57:38;33.40;1.00
774;DHT22;370;48.810;9.150;2023-09-12T16:00:06;33.30;1.00
774;DHT22;370;48.810;9.150;2023-09-12T16:02:36;33.30;1.00
774;DHT22;370;48.810;9.150;2023-09-12T16:05:04;33.60;1.00
774;DHT22;370;48.810;9.150;2023-09-12T16:07:32;33.90;1.00
774;DHT22;370;48.810;9.150;2023-09-12T16:09:59;34.30;1.00
774;DHT22;370;48.810;9.150;2023-09-12T16:12:26;34.70;1.00
774;DHT22;370;48.810;9.150;2023-09-12T16:14:55;35.50;1.00
774;DHT22;370;48.810;9.150;2023-09-12T16:17:22;36.00;1.00
774;DHT22;370;48.810;9.150;2023-09-12T16:19:49;36.60;1.00
774;DHT22;370;48.810;9.150;2023-09-12T16:22:17;37.10;1.00
774;DHT22;370;48.810;9.150;2023-09-12T16:24:43;37.40;1.00
774;DHT22;370;48.810;9.150;2023-09-12T16:27:10;37.60;1.00
774;DHT22;370;48.810;9.150;2023-09-12T16:29:37;37.80;1.00
774;DHT22;370;48.810;9.150;2023-09-12T16:32:06;37.90;1.00
774;DHT22;370;48.810;9.150;2023-09-12T16:34:33;37.90;1.00
774;DHT22;370;48.810;9.150;2023-09-12T16:37:00;37.90;1.00
774;DHT22;370;48.810;9.150;2023-09-12T16:39:27;37.80;1.00
774;DHT22;370;48.810;9.150;2023-09-12T16:41:54;37.50;1.00
774;DHT22;370;48.810;9.150;2023-09-12T16:44:21;37.20;1.00
774;DHT22;370;48.810;9.150;2023-09-12T16:46:48;36.80;1.00
774;DHT22;370;48.810;9.150;2023-09-12T16:49:16;36.10;1.00
774;DHT22;370;48.810;9.150;2023-09-12T16:51:43;35.40;1.00
774;DHT22;370;48.810;9.150;2023-09-12T16:54:10;34.80;1.00
774;DHT22;370;48.810;9.150;2023-09-12T16:56:37;34.30;1.00
774;DHT22;370;48.810;9.150;2023-09-12T16:59:04;33.90;1.00